createdAt,value
2023-05-10T00:01:35.586Z,12.48
2023-05-10T00:04:06.371Z,12.52
2023-05-10T00:06:36.965Z,12.49
2023-05-10T00:09:07.715Z,12.46
2023-05-10T00:11:38.411Z,12.49
2023-05-10T00:14:09.080Z,12.44
2023-05-10T00:16:40.046Z,12.38
2023-05-10T00:19:12.304Z,12.39
2023-05-10T00:21:42.852Z,12.45
2023-05-10T00:24:13.516Z,12.43
2023-05-10T00:26:44.071Z,12.40
2023-05-10T00:29:15.802Z,12.42
2023-05-10T00:31:46.448Z,12.46
2023-05-10T00:34:17.290Z,12.41
2023-05-10T00:36:47.918Z,12.35
2023-05-10T00:39:19.526Z,12.32
2023-05-10T00:41:50.260Z,12.28
2023-05-10T00:44:21.607Z,12.22
2023-05-10T00:46:52.790Z,12.11
2023-05-10T00:49:23.604Z,12.10
2023-05-10T00:51:54.481Z,12.01
2023-05-10T00:54:25.177Z,11.88
2023-05-10T00:56:57.422Z,11.84
2023-05-10T00:59:29.122Z,11.87
2023-05-10T01:02:00.782Z,11.78
2023-05-10T01:04:31.778Z,11.76
2023-05-10T01:07:02.817Z,11.71
2023-05-10T01:09:34.648Z,11.67
2023-05-10T01:12:07.869Z,11.62
2023-05-10T01:14:39.156Z,11.59
2023-05-10T01:17:10.777Z,11.58
2023-05-10T01:19:41.539Z,11.49
2023-05-10T01:22:41.042Z,11.44
2023-05-10T01:25:38.336Z,11.42
2023-05-10T01:28:27.085Z,11.35
2023-05-10T01:31:12.930Z,11.37
2023-05-10T01:33:59.856Z,11.30
2023-05-10T01:36:36.217Z,11.35
2023-05-10T01:39:09.856Z,11.22
2023-05-10T01:41:58.343Z,11.18
2023-05-10T01:44:36.585Z,11.09
2023-05-10T01:47:11.882Z,11.10
2023-05-10T01:49:45.572Z,11.03
2023-05-10T01:52:20.384Z,11.08
2023-05-10T01:55:00.303Z,10.94
2023-05-10T01:57:37.152Z,10.90
2023-05-10T02:00:10.528Z,10.88
2023-05-10T02:02:44.415Z,10.80
2023-05-10T02:05:17.007Z,10.82
2023-05-10T02:07:48.592Z,10.76
2023-05-10T02:10:20.577Z,10.73
2023-05-10T02:12:52.661Z,10.68
2023-05-10T02:15:25.834Z,10.60
2023-05-10T02:17:58.639Z,10.71
2023-05-10T02:20:29.892Z,10.64
2023-05-10T02:23:01.885Z,10.58
2023-05-10T02:25:35.774Z,10.56
2023-05-10T02:28:08.929Z,10.55
2023-05-10T02:30:39.992Z,10.58
2023-05-10T02:33:11.383Z,10.51
2023-05-10T02:35:42.792Z,10.49
2023-05-10T02:38:15.283Z,10.48
2023-05-10T02:40:48.311Z,10.58
2023-05-10T02:43:20.287Z,10.50
2023-05-10T02:45:51.363Z,10.52
2023-05-10T02:48:22.147Z,10.56
2023-05-10T02:50:55.732Z,10.46
2023-05-10T02:53:32.083Z,10.43
2023-05-10T02:56:06.520Z,10.39
2023-05-10T02:58:39.576Z,10.36
2023-05-10T03:01:09.741Z,10.36
2023-05-10T03:03:40.363Z,10.34
2023-05-10T03:06:11.950Z,10.40
2023-05-10T03:08:42.590Z,10.30
2023-05-10T03:11:34.075Z,10.32
2023-05-10T03:14:13.954Z,10.23
2023-05-10T03:16:51.476Z,10.21
2023-05-10T03:19:52.025Z,10.15
2023-05-10T03:22:39.908Z,10.18
2023-05-10T03:25:12.790Z,10.16
2023-05-10T03:27:45.893Z,10.06
2023-05-10T03:30:17.813Z,10.13
2023-05-10T03:32:48.610Z,10.12
2023-05-10T03:35:19.366Z,10.10
2023-05-10T03:37:50.028Z,10.08
2023-05-10T03:40:22.038Z,10.12
2023-05-10T03:42:52.693Z,10.15
2023-05-10T03:45:23.795Z,10.16
2023-05-10T03:47:57.661Z,10.16
2023-05-10T03:50:28.616Z,10.15
2023-05-10T03:52:59.226Z,10.15
2023-05-10T03:55:30.534Z,10.12
2023-05-10T03:58:01.072Z,10.15
2023-05-10T04:00:32.629Z,10.11
2023-05-10T04:03:03.338Z,10.10
2023-05-10T04:05:34.073Z,10.21
2023-05-10T04:08:05.273Z,10.20
2023-05-10T04:10:35.934Z,10.22
2023-05-10T04:13:07.246Z,10.29
2023-05-10T04:15:37.957Z,10.37
2023-05-10T04:18:09.173Z,10.34
2023-05-10T04:20:39.799Z,10.38
2023-05-10T04:23:12.941Z,10.40
2023-05-10T04:25:44.365Z,10.46
2023-05-10T04:28:14.827Z,10.50
2023-05-10T04:30:46.829Z,10.54
2023-05-10T04:33:17.418Z,10.62
2023-05-10T04:35:48.026Z,10.60
2023-05-10T04:38:18.917Z,10.60
2023-05-10T04:40:49.473Z,10.62
2023-05-10T04:43:20.605Z,10.71
2023-05-10T04:45:53.347Z,10.75
2023-05-10T04:48:24.119Z,10.82
2023-05-10T04:50:54.921Z,10.84
2023-05-10T04:53:28.594Z,10.98
2023-05-10T04:55:59.220Z,11.19
2023-05-10T04:58:31.070Z,12.12
2023-05-10T05:01:11.301Z,13.78
2023-05-10T05:03:42.712Z,14.32
2023-05-10T05:06:14.959Z,14.20
2023-05-10T05:08:45.540Z,14.31
2023-05-10T05:11:16.416Z,14.30
2023-05-10T05:13:47.453Z,14.92
2023-05-10T05:16:18.547Z,14.52
2023-05-10T05:18:49.317Z,14.90
2023-05-10T05:21:22.852Z,15.75
2023-05-10T05:23:53.903Z,15.28
2023-05-10T05:26:26.084Z,15.56
2023-05-10T05:28:56.863Z,14.94
2023-05-10T05:31:27.606Z,14.46
2023-05-10T05:33:59.995Z,15.46
2023-05-10T05:36:32.285Z,15.76
2023-05-10T05:39:11.512Z,16.11
2023-05-10T05:41:38.813Z,16.24
2023-05-10T05:44:10.920Z,16.58
2023-05-10T05:46:41.725Z,16.24
2023-05-10T05:49:13.255Z,16.93
2023-05-10T05:51:44.063Z,17.43
2023-05-10T05:54:14.759Z,17.70
2023-05-10T05:56:45.436Z,17.22
2023-05-10T05:59:17.165Z,17.25
2023-05-10T06:01:47.900Z,16.07
2023-05-10T06:04:19.441Z,16.87
2023-05-10T06:06:53.795Z,18.10
2023-05-10T06:09:25.819Z,18.68
2023-05-10T06:11:56.666Z,19.57
2023-05-10T06:14:28.593Z,18.18
2023-05-10T06:17:00.582Z,18.10
2023-05-10T06:19:33.042Z,18.62
2023-05-10T06:22:04.050Z,17.95
2023-05-10T06:24:34.830Z,17.03
2023-05-10T06:27:08.090Z,17.59
2023-05-10T06:29:40.413Z,18.15
2023-05-10T06:32:11.933Z,18.00
2023-05-10T06:34:44.350Z,17.13
2023-05-10T06:37:15.202Z,18.98
2023-05-10T06:39:45.988Z,18.05
2023-05-10T06:42:16.977Z,16.47
2023-05-10T06:44:47.933Z,15.75
2023-05-10T06:47:19.252Z,15.22
2023-05-10T06:49:50.228Z,15.26
2023-05-10T06:52:20.817Z,15.20
2023-05-10T06:54:51.434Z,15.00
2023-05-10T06:57:31.112Z,15.27
2023-05-10T06:59:57.049Z,15.23
2023-05-10T07:02:29.534Z,15.04
2023-05-10T07:05:02.775Z,15.20
2023-05-10T07:07:33.676Z,14.99
2023-05-10T07:10:04.834Z,15.34
2023-05-10T07:12:37.901Z,15.38
2023-05-10T07:15:09.779Z,15.52
2023-05-10T07:17:41.853Z,15.56
2023-05-10T07:20:13.341Z,15.58
2023-05-10T07:22:45.942Z,15.68
2023-05-10T07:25:16.912Z,15.72
2023-05-10T07:27:50.477Z,15.74
2023-05-10T07:30:21.109Z,15.91
2023-05-10T07:32:51.778Z,15.78
2023-05-10T07:35:22.315Z,15.73
2023-05-10T07:37:53.264Z,15.77
2023-05-10T07:40:24.010Z,15.78
2023-05-10T07:42:56.221Z,15.81
2023-05-10T07:45:27.358Z,15.97
2023-05-10T07:47:59.560Z,16.26
2023-05-10T07:50:31.806Z,16.08
2023-05-10T07:53:02.535Z,16.11
2023-05-10T07:55:33.192Z,16.35
2023-05-10T07:58:03.782Z,16.31
2023-05-10T08:00:34.573Z,16.14
2023-05-10T08:03:05.637Z,16.32
2023-05-10T08:05:36.222Z,16.18
2023-05-10T08:08:07.052Z,16.31
2023-05-10T08:10:37.755Z,16.64
2023-05-10T08:13:08.420Z,16.82
2023-05-10T08:15:39.141Z,16.70
2023-05-10T08:18:13.121Z,16.83
2023-05-10T08:20:43.836Z,16.72
2023-05-10T08:23:17.449Z,16.68
2023-05-10T08:25:48.337Z,16.68
2023-05-10T08:28:19.069Z,16.88
2023-05-10T08:30:51.251Z,16.92
2023-05-10T08:33:21.906Z,16.88
2023-05-10T08:35:53.425Z,16.86
2023-05-10T08:38:23.983Z,17.14
2023-05-10T08:41:00.167Z,17.24
2023-05-10T08:43:31.461Z,17.24
2023-05-10T08:46:07.066Z,17.37
2023-05-10T08:48:39.394Z,17.45
2023-05-10T08:51:11.487Z,17.40
2023-05-10T08:53:42.165Z,17.17
2023-05-10T08:56:16.238Z,17.40
2023-05-10T08:58:47.157Z,17.70
2023-05-10T09:01:20.037Z,17.78
2023-05-10T09:03:54.498Z,17.90
2023-05-10T09:06:25.593Z,17.98
2023-05-10T09:08:56.701Z,18.04
2023-05-10T09:11:29.939Z,18.19
2023-05-10T09:14:00.703Z,18.29
2023-05-10T09:16:32.842Z,18.42
2023-05-10T09:19:04.537Z,18.49
2023-05-10T09:21:42.163Z,18.12
2023-05-10T09:24:15.005Z,18.23
2023-05-10T09:26:50.261Z,18.23
2023-05-10T09:29:20.945Z,18.34
2023-05-10T09:31:53.408Z,18.36
2023-05-10T09:34:32.310Z,18.11
2023-05-10T09:37:07.599Z,18.46
2023-05-10T09:39:39.422Z,18.52
2023-05-10T09:42:12.292Z,18.60
2023-05-10T09:44:44.458Z,18.70
2023-05-10T09:47:22.793Z,18.55
2023-05-10T09:49:56.150Z,18.63
2023-05-10T09:52:26.872Z,18.85
2023-05-10T09:54:57.538Z,18.94
2023-05-10T09:57:28.204Z,19.12
2023-05-10T10:00:00.281Z,19.22
2023-05-10T10:02:31.637Z,19.16
2023-05-10T10:05:05.825Z,18.82
2023-05-10T10:07:37.988Z,18.82
2023-05-10T10:10:11.516Z,18.86
2023-05-10T10:12:43.215Z,18.97
2023-05-10T10:15:16.612Z,18.56
2023-05-10T10:17:47.542Z,18.92
2023-05-10T10:20:19.863Z,19.12
2023-05-10T10:22:51.474Z,19.12
2023-05-10T10:25:23.450Z,19.24
2023-05-10T10:27:57.108Z,19.32
2023-05-10T10:30:33.681Z,19.66
2023-05-10T10:33:27.868Z,19.52
2023-05-10T10:35:52.513Z,19.66
2023-05-10T10:38:23.915Z,19.78
2023-05-10T10:41:15.238Z,19.85
2023-05-10T10:43:49.107Z,19.82
2023-05-10T10:46:21.799Z,19.84
2023-05-10T10:49:12.775Z,20.18
2023-05-10T10:51:46.328Z,20.07
2023-05-10T10:54:20.073Z,20.11
2023-05-10T10:56:56.666Z,20.19
2023-05-10T10:59:30.248Z,20.04
2023-05-10T11:02:01.688Z,20.09
2023-05-10T11:04:35.443Z,20.08
2023-05-10T11:07:21.692Z,20.26
2023-05-10T11:09:52.820Z,20.70
2023-05-10T11:12:24.405Z,20.89
2023-05-10T11:14:58.114Z,20.74
2023-05-10T11:17:32.711Z,20.42
2023-05-10T11:20:15.199Z,20.66
2023-05-10T11:22:53.542Z,20.65
2023-05-10T11:25:29.245Z,20.82
2023-05-10T11:28:01.696Z,20.75
2023-05-10T11:30:33.416Z,20.70
2023-05-10T11:33:04.120Z,20.59
2023-05-10T11:35:43.403Z,20.60
2023-05-10T11:38:15.169Z,20.62
2023-05-10T11:40:45.830Z,20.52
2023-05-10T11:43:16.536Z,20.35
2023-05-10T11:45:48.118Z,20.51
2023-05-10T11:48:20.494Z,20.73
2023-05-10T11:50:52.010Z,20.53
2023-05-10T11:53:23.772Z,20.74
2023-05-10T11:55:55.653Z,20.78
2023-05-10T11:58:27.391Z,20.93
2023-05-10T12:00:58.410Z,21.22
2023-05-10T12:03:32.765Z,21.57
2023-05-10T12:06:04.828Z,21.60
2023-05-10T12:08:35.786Z,21.45
2023-05-10T12:11:09.259Z,21.45
2023-05-10T12:13:41.346Z,21.46
2023-05-10T12:16:23.230Z,21.46
2023-05-10T12:18:57.005Z,21.56
2023-05-10T12:21:29.868Z,21.43
2023-05-10T12:24:06.621Z,21.59
2023-05-10T12:26:39.194Z,21.88
2023-05-10T12:29:18.062Z,22.02
2023-05-10T12:31:55.262Z,21.90
2023-05-10T12:34:37.258Z,22.00
2023-05-10T12:37:07.804Z,21.94
2023-05-10T12:39:43.990Z,21.86
2023-05-10T12:42:14.729Z,21.60
2023-05-10T12:44:46.897Z,21.92
2023-05-10T12:47:17.628Z,21.46
2023-05-10T12:49:48.184Z,21.67
2023-05-10T12:52:18.889Z,21.88
2023-05-10T12:54:50.275Z,21.77
2023-05-10T12:57:22.800Z,21.77
2023-05-10T12:59:53.396Z,21.96
2023-05-10T13:02:24.951Z,22.18
2023-05-10T13:04:55.799Z,22.09
2023-05-10T13:07:26.647Z,22.32
2023-05-10T13:09:57.237Z,22.12
2023-05-10T13:12:27.861Z,22.14
2023-05-10T13:14:58.504Z,22.31
2023-05-10T13:17:29.091Z,22.22
2023-05-10T13:19:59.600Z,21.69
2023-05-10T13:22:39.731Z,22.02
2023-05-10T13:25:04.263Z,22.08
2023-05-10T13:27:34.825Z,22.21
2023-05-10T13:30:06.681Z,22.60
2023-05-10T13:32:37.690Z,22.69
2023-05-10T13:35:08.996Z,22.99
2023-05-10T13:37:39.578Z,22.55
2023-05-10T13:40:12.419Z,22.64
2023-05-10T13:42:44.289Z,22.78
2023-05-10T13:45:15.044Z,22.63
2023-05-10T13:47:47.659Z,23.05
2023-05-10T13:50:19.640Z,23.14
2023-05-10T13:52:50.557Z,22.91
2023-05-10T13:55:21.452Z,23.08
2023-05-10T13:57:52.238Z,22.78
2023-05-10T14:00:22.951Z,23.09
2023-05-10T14:02:54.851Z,22.57
2023-05-10T14:05:27.313Z,22.12
2023-05-10T14:07:58.198Z,22.28
2023-05-10T14:10:29.974Z,22.51
2023-05-10T14:13:02.342Z,22.61
2023-05-10T14:15:32.882Z,22.68
2023-05-10T14:18:03.608Z,22.12
2023-05-10T14:20:34.707Z,21.84
2023-05-10T14:23:05.380Z,21.68
2023-05-10T14:25:36.309Z,21.82
2023-05-10T14:28:07.015Z,22.09
2023-05-10T14:30:37.695Z,22.26
2023-05-10T14:33:09.112Z,22.56
2023-05-10T14:35:39.798Z,22.61
2023-05-10T14:38:11.664Z,22.62
2023-05-10T14:40:42.849Z,22.86
2023-05-10T14:43:13.416Z,22.82
2023-05-10T14:45:44.395Z,22.70
2023-05-10T14:48:16.723Z,22.69
2023-05-10T14:50:47.897Z,22.46
2023-05-10T14:53:19.088Z,22.35
2023-05-10T14:55:50.220Z,22.16
2023-05-10T14:58:21.710Z,22.13
2023-05-10T15:00:53.852Z,22.10
2023-05-10T15:03:25.192Z,22.14
2023-05-10T15:05:58.069Z,22.00
2023-05-10T15:08:28.748Z,21.81
2023-05-10T15:11:00.046Z,21.92
2023-05-10T15:13:30.601Z,21.83
2023-05-10T15:16:01.469Z,21.91
2023-05-10T15:18:32.228Z,21.99
2023-05-10T15:21:02.779Z,22.02
2023-05-10T15:23:33.342Z,21.82
2023-05-10T15:26:04.035Z,22.12
2023-05-10T15:28:34.757Z,22.04
2023-05-10T15:31:05.415Z,21.92
2023-05-10T15:33:36.186Z,21.70
2023-05-10T15:36:07.568Z,21.65
2023-05-10T15:38:38.259Z,21.74
2023-05-10T15:41:08.863Z,21.77
2023-05-10T15:43:39.448Z,21.74
2023-05-10T15:46:10.000Z,21.88
2023-05-10T15:48:40.812Z,21.84
2023-05-10T15:51:11.336Z,21.68
2023-05-10T15:53:52.659Z,21.65
2023-05-10T15:56:14.585Z,21.52
2023-05-10T15:58:45.565Z,21.68
2023-05-10T16:01:18.160Z,21.82
2023-05-10T16:03:48.844Z,21.93
2023-05-10T16:06:19.447Z,22.16
2023-05-10T16:08:50.877Z,21.94
2023-05-10T16:11:24.058Z,21.70
2023-05-10T16:13:55.710Z,21.50
2023-05-10T16:16:26.577Z,21.49
2023-05-10T16:19:00.558Z,21.24
2023-05-10T16:21:34.364Z,21.31
2023-05-10T16:24:05.913Z,21.26
2023-05-10T16:26:38.218Z,21.21
2023-05-10T16:29:11.819Z,21.18
2023-05-10T16:31:43.371Z,21.14
2023-05-10T16:34:14.118Z,21.17
2023-05-10T16:36:46.412Z,21.36
2023-05-10T16:39:17.077Z,21.29
2023-05-10T16:41:47.763Z,21.04
2023-05-10T16:44:20.217Z,20.87
2023-05-10T16:46:51.053Z,20.81
2023-05-10T16:49:27.082Z,20.68
2023-05-10T16:51:57.762Z,20.36
2023-05-10T16:54:30.249Z,20.40
2023-05-10T16:57:02.126Z,20.81
2023-05-10T16:59:32.874Z,21.20
2023-05-10T17:02:03.552Z,21.72
2023-05-10T17:04:34.211Z,21.51
2023-05-10T17:07:04.975Z,21.36
2023-05-10T17:09:35.879Z,20.97
2023-05-10T17:12:07.072Z,20.72
2023-05-10T17:14:38.863Z,20.58
2023-05-10T17:17:10.038Z,20.29
2023-05-10T17:19:42.304Z,20.29
2023-05-10T17:22:14.345Z,19.83
2023-05-10T17:24:46.082Z,19.74
2023-05-10T17:27:16.764Z,19.78
2023-05-10T17:29:47.485Z,19.77
2023-05-10T17:32:18.051Z,19.67
2023-05-10T17:34:48.741Z,19.62
2023-05-10T17:37:19.391Z,19.68
2023-05-10T17:39:49.967Z,19.61
2023-05-10T17:42:20.852Z,19.75
2023-05-10T17:44:52.933Z,19.76
2023-05-10T17:47:24.626Z,19.36
2023-05-10T17:49:55.347Z,19.08
2023-05-10T17:52:26.155Z,18.76
2023-05-10T17:54:56.729Z,18.56
2023-05-10T17:57:27.380Z,18.34
2023-05-10T17:59:57.946Z,18.23
2023-05-10T18:02:30.183Z,18.12
2023-05-10T18:05:01.752Z,18.01
2023-05-10T18:07:32.732Z,17.92
2023-05-10T18:10:03.407Z,17.87
2023-05-10T18:12:33.922Z,17.77
2023-05-10T18:15:06.277Z,17.73
2023-05-10T18:17:36.885Z,17.70
2023-05-10T18:20:08.630Z,17.66
2023-05-10T18:22:39.352Z,17.54
2023-05-10T18:25:11.208Z,17.50
2023-05-10T18:27:42.362Z,17.48
2023-05-10T18:30:15.143Z,17.43
2023-05-10T18:32:46.627Z,17.45
2023-05-10T18:35:17.356Z,17.30
2023-05-10T18:37:48.786Z,17.31
2023-05-10T18:40:19.583Z,17.30
2023-05-10T18:42:50.537Z,17.23
2023-05-10T18:45:21.207Z,17.17
2023-05-10T18:47:52.138Z,17.23
2023-05-10T18:50:22.799Z,17.19
2023-05-10T18:52:53.918Z,17.19
2023-05-10T18:55:25.930Z,17.12
2023-05-10T18:58:01.811Z,17.11
2023-05-10T19:00:32.398Z,16.96
2023-05-10T19:03:03.052Z,16.87
2023-05-10T19:05:33.735Z,16.91
2023-05-10T19:08:04.430Z,16.88
2023-05-10T19:10:35.032Z,16.84
2023-05-10T19:13:07.744Z,16.77
2023-05-10T19:15:41.470Z,16.69
2023-05-10T19:18:11.989Z,16.56
2023-05-10T19:20:42.690Z,16.43
2023-05-10T19:23:14.021Z,16.53
2023-05-10T19:25:47.388Z,16.43
2023-05-10T19:28:19.233Z,16.60
2023-05-10T19:30:50.340Z,16.44
2023-05-10T19:33:22.719Z,16.36
2023-05-10T19:35:54.700Z,16.26
2023-05-10T19:38:27.137Z,16.44
2023-05-10T19:40:58.567Z,16.38
2023-05-10T19:43:35.928Z,16.32
2023-05-10T19:46:09.088Z,16.46
2023-05-10T19:48:39.773Z,16.45
2023-05-10T19:51:10.531Z,16.34
2023-05-10T19:53:42.833Z,16.34
2023-05-10T19:56:14.375Z,16.20
2023-05-10T19:58:45.019Z,16.18
2023-05-10T20:01:16.488Z,16.23
2023-05-10T20:03:47.506Z,16.23
2023-05-10T20:06:18.156Z,16.16
2023-05-10T20:08:48.701Z,16.16
2023-05-10T20:11:21.533Z,16.04
2023-05-10T20:13:53.152Z,15.92
2023-05-10T20:16:27.104Z,16.01
2023-05-10T20:18:56.867Z,15.90
2023-05-10T20:21:29.031Z,15.89
2023-05-10T20:23:59.735Z,15.88
2023-05-10T20:26:31.192Z,15.81
2023-05-10T20:29:01.866Z,15.74
2023-05-10T20:31:33.113Z,15.72
2023-05-10T20:34:03.798Z,15.58
2023-05-10T20:36:34.523Z,15.56
2023-05-10T20:39:05.419Z,15.49
2023-05-10T20:41:35.915Z,15.46
2023-05-10T20:44:06.789Z,15.45
2023-05-10T20:46:37.795Z,15.44
2023-05-10T20:49:10.471Z,15.42
2023-05-10T20:51:41.006Z,15.28
2023-05-10T20:54:13.296Z,15.26
2023-05-10T20:56:44.233Z,15.21
2023-05-10T20:59:15.662Z,15.16
2023-05-10T21:01:46.580Z,15.09
2023-05-10T21:04:18.631Z,15.10
2023-05-10T21:06:49.466Z,15.11
2023-05-10T21:09:22.599Z,15.16
2023-05-10T21:11:52.652Z,15.08
2023-05-10T21:14:24.069Z,15.08
2023-05-10T21:16:54.670Z,15.06
2023-05-10T21:19:25.242Z,14.98
2023-05-10T21:21:57.209Z,14.93
2023-05-10T21:24:28.088Z,14.97
2023-05-10T21:26:58.801Z,14.93
2023-05-10T21:29:29.500Z,14.90
2023-05-10T21:32:00.097Z,14.92
2023-05-10T21:34:31.163Z,14.87
2023-05-10T21:37:01.978Z,14.86
2023-05-10T21:39:32.666Z,14.85
2023-05-10T21:42:03.858Z,14.93
2023-05-10T21:44:34.616Z,14.88
2023-05-10T21:47:07.383Z,14.86
2023-05-10T21:49:39.503Z,14.85
2023-05-10T21:52:10.391Z,14.90
2023-05-10T21:54:42.064Z,14.82
2023-05-10T21:57:12.608Z,14.78
2023-05-10T21:59:43.188Z,14.84
2023-05-10T22:02:13.761Z,14.82
2023-05-10T22:04:44.417Z,14.92
2023-05-10T22:07:16.900Z,15.02
2023-05-10T22:09:47.573Z,15.07
2023-05-10T22:12:20.407Z,15.20
2023-05-10T22:15:06.493Z,15.18
2023-05-10T22:17:23.408Z,15.22
2023-05-10T22:19:53.952Z,15.16
2023-05-10T22:22:24.505Z,15.25
2023-05-10T22:24:56.140Z,15.21
2023-05-10T22:27:26.875Z,15.22
2023-05-10T22:29:58.162Z,15.21
2023-05-10T22:32:30.216Z,15.27
2023-05-10T22:35:00.794Z,15.32
2023-05-10T22:37:31.596Z,15.27
2023-05-10T22:40:02.317Z,15.28
2023-05-10T22:42:34.602Z,15.17
2023-05-10T22:45:07.286Z,15.14
2023-05-10T22:47:37.961Z,15.11
2023-05-10T22:50:10.777Z,15.06
2023-05-10T22:52:41.446Z,15.31
2023-05-10T22:55:13.322Z,15.18
2023-05-10T22:57:44.005Z,15.26
2023-05-10T23:00:15.573Z,15.32
2023-05-10T23:02:46.399Z,15.25
2023-05-10T23:05:17.316Z,15.11
2023-05-10T23:07:49.601Z,15.04
2023-05-10T23:10:21.941Z,14.96
2023-05-10T23:12:52.670Z,14.93
2023-05-10T23:15:23.200Z,14.81
2023-05-10T23:17:53.964Z,14.78
2023-05-10T23:20:24.815Z,14.66
2023-05-10T23:22:56.393Z,14.66
2023-05-10T23:25:27.015Z,14.68
2023-05-10T23:27:57.595Z,14.58
2023-05-10T23:30:28.243Z,14.57
2023-05-10T23:32:59.003Z,14.52
2023-05-10T23:35:30.567Z,14.43
2023-05-10T23:38:01.204Z,14.44
2023-05-10T23:40:31.758Z,14.39
2023-05-10T23:43:03.604Z,14.44
2023-05-10T23:45:34.538Z,14.40
2023-05-10T23:48:08.056Z,14.30
2023-05-10T23:50:38.644Z,14.35
2023-05-10T23:53:10.633Z,14.52
2023-05-10T23:55:41.437Z,14.58
2023-05-10T23:58:12.659Z,14.46
